createdAt,value
2019-04-05T00:01:35.743Z,31.40
2019-04-05T00:04:10.141Z,30.90
2019-04-05T00:06:45.047Z,31.15
2019-04-05T00:09:19.490Z,32.30
2019-04-05T00:11:53.911Z,31.05
2019-04-05T00:14:27.982Z,31.77
2019-04-05T00:17:01.979Z,31.17
2019-04-05T00:19:36.203Z,32.80
2019-04-05T00:22:10.397Z,33.02
2019-04-05T00:24:44.803Z,31.40
2019-04-05T00:27:19.922Z,32.17
2019-04-05T00:29:54.072Z,32.15
2019-04-05T00:32:28.347Z,32.38
2019-04-05T00:35:02.372Z,31.42
2019-04-05T00:37:36.306Z,31.93
2019-04-05T00:40:11.566Z,31.30
2019-04-05T00:42:46.890Z,32.23
2019-04-05T00:45:28.002Z,31.87
2019-04-05T00:47:58.174Z,31.33
2019-04-05T00:50:32.402Z,32.25
2019-04-05T00:53:06.712Z,31.60
2019-04-05T00:55:40.992Z,31.52
2019-04-05T00:58:15.122Z,31.00
2019-04-05T01:00:49.469Z,31.87
2019-04-05T01:03:23.420Z,32.23
2019-04-05T01:05:57.711Z,30.27
2019-04-05T01:08:32.189Z,30.90
2019-04-05T01:11:06.565Z,31.15
2019-04-05T01:13:42.226Z,30.77
2019-04-05T01:16:16.279Z,32.23
2019-04-05T01:18:50.658Z,30.57
2019-04-05T01:21:27.017Z,31.40
2019-04-05T01:24:03.593Z,31.10
2019-04-05T01:30:20.298Z,33.98
2019-04-05T01:32:54.990Z,35.35
2019-04-05T01:35:29.152Z,34.78
2019-04-05T01:38:04.025Z,34.60
2019-04-05T01:40:40.900Z,33.50
2019-04-05T01:43:15.343Z,34.67
2019-04-05T01:45:53.934Z,35.25
2019-04-05T01:48:26.391Z,34.00
2019-04-05T01:51:01.034Z,34.43
2019-04-05T01:53:35.225Z,35.52
2019-04-05T01:56:09.688Z,34.75
2019-04-05T01:58:43.803Z,35.88
2019-04-05T02:01:18.183Z,35.60
2019-04-05T02:03:52.685Z,36.23
2019-04-05T02:06:26.919Z,36.10
2019-04-05T02:09:01.350Z,34.95
2019-04-05T02:11:37.032Z,34.27
2019-04-05T02:14:11.475Z,35.60
2019-04-05T02:16:45.674Z,35.03
2019-04-05T02:19:20.131Z,37.60
2019-04-05T02:21:54.536Z,37.30
2019-04-05T02:24:28.960Z,36.17
2019-04-05T02:27:03.165Z,37.13
2019-04-05T02:29:37.637Z,37.90
2019-04-05T02:32:12.015Z,36.17
2019-04-05T02:34:46.265Z,37.90
2019-04-05T02:37:20.413Z,37.85
2019-04-05T02:39:54.729Z,36.80
2019-04-05T02:42:30.054Z,36.38
2019-04-05T02:45:04.621Z,37.53
2019-04-05T02:47:41.851Z,36.65
2019-04-05T02:50:17.581Z,36.40
2019-04-05T02:52:53.140Z,36.28
2019-04-05T02:55:28.785Z,37.55
2019-04-05T02:58:05.156Z,36.40
2019-04-05T03:00:40.326Z,36.77
2019-04-05T03:03:14.693Z,37.13
2019-04-05T03:05:50.142Z,35.23
2019-04-05T03:08:24.299Z,37.60
2019-04-05T03:11:20.289Z,38.33
2019-04-05T03:13:57.171Z,39.65
2019-04-05T03:16:43.548Z,38.17
2019-04-05T03:19:26.927Z,38.92
2019-04-05T03:22:08.783Z,38.88
2019-04-05T03:24:45.879Z,39.42
2019-04-05T03:27:25.142Z,37.70
2019-04-05T03:29:59.732Z,37.40
2019-04-05T03:32:34.010Z,37.48
2019-04-05T03:35:08.209Z,37.65
2019-04-05T03:37:42.339Z,37.48
2019-04-05T03:40:16.892Z,37.45
2019-04-05T03:42:51.841Z,38.50
2019-04-05T03:45:26.173Z,38.30
2019-04-05T03:48:00.516Z,38.48
2019-04-05T03:50:34.598Z,39.03
2019-04-05T03:53:09.415Z,38.17
2019-04-05T03:55:43.834Z,40.63
2019-04-05T03:58:18.625Z,41.13
2019-04-05T04:00:52.847Z,41.92
2019-04-05T04:03:27.150Z,45.15
2019-04-05T04:06:01.412Z,48.80
2019-04-05T04:08:36.990Z,50.40
2019-04-05T04:11:11.325Z,54.25
2019-04-05T04:13:45.657Z,52.25
2019-04-05T04:16:20.462Z,51.45
2019-04-05T04:18:54.970Z,50.90
2019-04-05T04:21:41.855Z,51.35
2019-04-05T04:24:16.118Z,50.20
2019-04-05T04:26:51.308Z,49.73
2019-04-05T04:29:25.689Z,49.40
2019-04-05T04:31:59.891Z,48.20
2019-04-05T04:34:35.014Z,48.83
2019-04-05T04:37:09.269Z,49.93
2019-04-05T04:39:44.560Z,46.88
2019-04-05T04:42:19.146Z,49.03
2019-04-05T04:44:54.827Z,75.90
2019-04-05T04:47:29.460Z,53.87
2019-04-05T04:50:04.541Z,54.40
2019-04-05T04:52:38.909Z,52.15
2019-04-05T04:55:13.633Z,53.10
2019-04-05T04:57:47.845Z,52.20
2019-04-05T05:00:22.440Z,51.37
2019-04-05T05:02:57.160Z,49.63
2019-04-05T05:05:32.552Z,51.70
2019-04-05T05:08:07.015Z,48.85
2019-04-05T05:10:41.398Z,48.38
2019-04-05T05:13:15.674Z,46.77
2019-04-05T05:15:50.470Z,46.55
2019-04-05T05:18:25.441Z,44.83
2019-04-05T05:20:59.828Z,43.63
2019-04-05T05:23:34.545Z,44.23
2019-04-05T05:26:09.336Z,43.40
2019-04-05T05:28:44.021Z,41.83
2019-04-05T05:31:18.262Z,43.23
2019-04-05T05:33:52.506Z,41.63
2019-04-05T05:36:26.223Z,39.95
2019-04-05T05:39:00.859Z,40.17
2019-04-05T05:41:36.678Z,40.65
2019-04-05T05:44:10.845Z,39.25
2019-04-05T05:46:45.123Z,39.18
2019-04-05T05:49:19.273Z,38.50
2019-04-05T05:51:53.899Z,38.92
2019-04-05T05:54:28.057Z,36.05
2019-04-05T05:57:02.243Z,37.48
2019-04-05T05:59:36.404Z,38.53
2019-04-05T06:02:11.775Z,37.60
2019-04-05T06:04:45.611Z,38.17
2019-04-05T06:07:20.206Z,37.10
2019-04-05T06:09:54.507Z,37.60
2019-04-05T06:12:28.693Z,37.60
2019-04-05T06:15:03.047Z,36.15
2019-04-05T06:17:37.479Z,34.38
2019-04-05T06:20:11.926Z,34.85
2019-04-05T06:22:47.579Z,34.63
2019-04-05T06:25:22.306Z,33.05
2019-04-05T06:27:57.155Z,33.85
2019-04-05T06:30:32.536Z,32.28
2019-04-05T06:33:06.862Z,33.02
2019-04-05T06:35:42.109Z,31.82
2019-04-05T06:38:16.312Z,31.33
2019-04-05T06:40:50.576Z,30.60
2019-04-05T06:43:24.797Z,31.15
2019-04-05T06:45:59.119Z,30.57
2019-04-05T06:48:33.404Z,29.40
2019-04-05T06:51:07.581Z,29.72
2019-04-05T06:53:41.891Z,28.77
2019-04-05T06:56:16.080Z,28.50
2019-04-05T06:58:50.083Z,28.70
2019-04-05T07:01:24.195Z,28.45
2019-04-05T07:03:58.182Z,28.42
2019-04-05T07:06:32.397Z,27.15
2019-04-05T07:09:07.524Z,26.87
2019-04-05T07:11:41.741Z,26.50
2019-04-05T07:14:16.207Z,27.13
2019-04-05T07:16:50.805Z,27.62
2019-04-05T07:19:25.082Z,26.57
2019-04-05T07:21:59.111Z,26.82
2019-04-05T07:24:32.979Z,25.97
2019-04-05T07:27:06.895Z,26.10
2019-04-05T07:29:40.868Z,25.90
2019-04-05T07:32:14.999Z,26.17
2019-04-05T07:34:48.942Z,27.02
2019-04-05T07:37:23.346Z,27.50
2019-04-05T07:39:57.619Z,27.87
2019-04-05T07:42:31.760Z,26.68
2019-04-05T07:45:05.792Z,27.13
2019-04-05T07:47:39.953Z,26.30
2019-04-05T07:50:14.016Z,24.50
2019-04-05T07:52:48.124Z,25.68
2019-04-05T07:55:22.263Z,25.32
2019-04-05T07:57:58.330Z,25.05
2019-04-05T08:00:51.344Z,24.70
2019-04-05T08:03:25.917Z,24.35
2019-04-05T08:06:00.053Z,23.20
2019-04-05T08:09:07.915Z,23.00
2019-04-05T08:11:44.230Z,22.42
2019-04-05T08:14:20.916Z,22.42
2019-04-05T08:16:55.167Z,22.25
2019-04-05T08:19:29.556Z,21.68
2019-04-05T08:22:03.411Z,22.25
2019-04-05T08:24:37.414Z,21.70
2019-04-05T08:27:11.811Z,20.55
2019-04-05T08:29:45.867Z,21.77
2019-04-05T08:32:21.091Z,21.10
2019-04-05T08:34:55.309Z,20.43
2019-04-05T08:37:29.336Z,21.07
2019-04-05T08:40:03.690Z,20.55
2019-04-05T08:42:37.919Z,20.97
2019-04-05T08:45:13.311Z,20.05
2019-04-05T08:47:47.360Z,19.35
2019-04-05T08:50:21.683Z,19.90
2019-04-05T08:52:55.891Z,19.15
2019-04-05T08:55:29.999Z,19.50
2019-04-05T08:58:04.129Z,18.60
2019-04-05T09:00:38.192Z,17.87
2019-04-05T09:03:12.650Z,18.07
2019-04-05T09:05:46.827Z,17.90
2019-04-05T09:08:21.476Z,17.67
2019-04-05T09:10:55.970Z,18.10
2019-04-05T09:13:30.176Z,16.90
2019-04-05T09:16:04.466Z,17.30
2019-04-05T09:18:38.532Z,16.17
2019-04-05T09:21:13.467Z,16.12
2019-04-05T09:23:47.729Z,15.50
2019-04-05T09:26:22.708Z,15.70
2019-04-05T09:28:56.901Z,15.40
2019-04-05T09:31:30.879Z,16.15
2019-04-05T09:34:05.184Z,15.93
2019-04-05T09:36:39.550Z,15.65
2019-04-05T09:39:15.705Z,14.73
2019-04-05T09:41:49.767Z,14.70
2019-04-05T09:44:24.032Z,14.93
2019-04-05T09:46:59.198Z,14.50
2019-04-05T09:49:36.883Z,14.20
2019-04-05T09:52:09.728Z,14.00
2019-04-05T09:54:43.862Z,14.33
2019-04-05T09:57:18.390Z,13.48
2019-04-05T09:59:52.288Z,13.98
2019-04-05T10:02:26.569Z,13.83
2019-04-05T10:05:00.789Z,13.05
2019-04-05T10:07:35.206Z,13.50
2019-04-05T10:10:09.453Z,13.70
2019-04-05T10:12:43.519Z,13.03
2019-04-05T10:15:17.673Z,13.05
2019-04-05T10:17:52.187Z,12.95
2019-04-05T10:20:27.434Z,13.05
2019-04-05T10:23:01.737Z,12.93
2019-04-05T10:25:36.055Z,11.90
2019-04-05T10:28:10.430Z,12.53
2019-04-05T10:30:44.906Z,12.47
2019-04-05T10:33:19.411Z,12.18
2019-04-05T10:35:53.810Z,12.98
2019-04-05T10:38:27.961Z,12.13
2019-04-05T10:41:02.404Z,12.45
2019-04-05T10:43:36.849Z,11.22
2019-04-05T10:46:11.450Z,11.43
2019-04-05T10:48:46.378Z,11.20
2019-04-05T10:51:20.649Z,11.12
2019-04-05T10:53:54.787Z,11.38
2019-04-05T10:56:28.942Z,11.30
2019-04-05T10:59:03.378Z,10.88
2019-04-05T11:01:37.674Z,11.00
2019-04-05T11:04:12.098Z,11.22
2019-04-05T11:06:47.938Z,11.40
2019-04-05T11:09:22.075Z,10.60
2019-04-05T11:11:56.374Z,11.18
2019-04-05T11:14:30.598Z,10.80
2019-04-05T11:17:05.246Z,10.08
2019-04-05T11:19:39.162Z,10.25
2019-04-05T11:22:13.261Z,10.20
2019-04-05T11:24:47.491Z,10.58
2019-04-05T11:27:21.927Z,9.70
2019-04-05T11:29:57.797Z,9.98
2019-04-05T11:32:34.349Z,10.18
2019-04-05T11:35:09.039Z,9.63
2019-04-05T11:37:43.399Z,10.08
2019-04-05T11:40:17.823Z,10.45
2019-04-05T11:42:52.291Z,10.13
2019-04-05T11:45:26.462Z,9.98
2019-04-05T11:48:01.884Z,10.35
2019-04-05T11:50:36.886Z,9.78
2019-04-05T11:53:11.604Z,10.85
2019-04-05T11:55:46.749Z,10.58
2019-04-05T11:58:21.288Z,10.03
2019-04-05T12:00:58.936Z,10.60
2019-04-05T12:03:33.056Z,11.12
2019-04-05T12:06:07.495Z,11.15
2019-04-05T12:08:41.945Z,11.43
2019-04-05T12:11:16.260Z,11.33
2019-04-05T12:13:50.595Z,11.43
2019-04-05T12:16:24.737Z,12.33
2019-04-05T12:18:59.119Z,13.95
2019-04-05T12:21:34.860Z,13.30
2019-04-05T12:24:09.547Z,13.45
2019-04-05T12:26:43.709Z,14.63
2019-04-05T12:29:17.709Z,14.20
2019-04-05T12:31:53.435Z,15.63
2019-04-05T12:34:28.726Z,14.75
2019-04-05T12:37:03.115Z,14.63
2019-04-05T12:39:38.675Z,15.85
2019-04-05T12:42:13.092Z,17.05
2019-04-05T12:44:47.299Z,18.48
2019-04-05T12:47:21.579Z,17.57
2019-04-05T12:49:55.768Z,17.65
2019-04-05T12:52:29.920Z,17.10
2019-04-05T12:55:04.214Z,17.70
2019-04-05T12:57:38.238Z,17.52
2019-04-05T13:00:14.235Z,18.00
2019-04-05T13:02:50.361Z,17.70
2019-04-05T13:05:24.278Z,18.20
2019-04-05T13:07:58.274Z,17.85
2019-04-05T13:10:32.503Z,18.15
2019-04-05T13:13:06.984Z,17.98
2019-04-05T13:15:41.333Z,15.83
2019-04-05T13:18:15.208Z,16.55
2019-04-05T13:20:49.024Z,16.40
2019-04-05T13:23:23.087Z,15.80
2019-04-05T13:25:57.927Z,16.12
2019-04-05T13:28:31.854Z,15.55
2019-04-05T13:31:06.419Z,16.35
2019-04-05T13:33:40.574Z,15.85
2019-04-05T13:36:14.765Z,15.85
2019-04-05T13:38:54.688Z,16.75
2019-04-05T13:41:24.399Z,16.87
2019-04-05T13:44:01.360Z,16.30
2019-04-05T13:46:38.311Z,15.13
2019-04-05T13:49:11.425Z,15.13
2019-04-05T13:51:45.706Z,14.90
2019-04-05T13:54:20.021Z,14.38
2019-04-05T13:56:54.346Z,13.98
2019-04-05T13:59:28.469Z,14.00
2019-04-05T14:02:06.269Z,14.07
2019-04-05T14:04:38.599Z,14.38
2019-04-05T14:07:12.639Z,13.83
2019-04-05T14:09:46.671Z,12.93
2019-04-05T14:12:20.803Z,14.00
2019-04-05T14:14:54.919Z,11.40
2019-04-05T14:17:29.151Z,11.75
2019-04-05T14:20:03.125Z,11.43
2019-04-05T14:22:37.374Z,11.10
2019-04-05T14:25:12.156Z,11.10
2019-04-05T14:27:47.252Z,11.80
2019-04-05T14:30:21.582Z,11.40
2019-04-05T14:32:55.800Z,10.90
2019-04-05T14:35:30.025Z,12.30
2019-04-05T14:38:04.193Z,11.65
2019-04-05T14:40:38.374Z,11.53
2019-04-05T14:43:12.824Z,12.82
2019-04-05T14:45:49.805Z,11.60
2019-04-05T14:48:27.310Z,12.05
2019-04-05T14:51:00.029Z,11.63
2019-04-05T14:53:34.030Z,12.37
2019-04-05T14:56:08.392Z,11.97
2019-04-05T14:58:42.588Z,11.60
2019-04-05T15:01:17.560Z,11.38
2019-04-05T15:03:51.936Z,11.33
2019-04-05T15:06:26.737Z,11.00
2019-04-05T15:09:02.135Z,10.88
2019-04-05T15:11:37.269Z,10.10
2019-04-05T15:14:11.636Z,9.95
2019-04-05T15:16:45.630Z,10.50
2019-04-05T15:19:19.649Z,10.45
2019-04-05T15:22:05.178Z,9.90
2019-04-05T15:24:29.596Z,10.03
2019-04-05T15:27:03.596Z,10.40
2019-04-05T15:29:37.644Z,10.05
2019-04-05T15:32:12.078Z,9.70
2019-04-05T15:34:46.289Z,10.05
2019-04-05T15:37:20.633Z,10.08
2019-04-05T15:39:54.828Z,10.03
2019-04-05T15:42:29.276Z,9.75
2019-04-05T15:45:03.533Z,11.20
2019-04-05T15:47:37.898Z,10.50
2019-04-05T15:50:12.429Z,10.05
2019-04-05T15:52:46.691Z,9.68
2019-04-05T15:55:20.759Z,10.90
2019-04-05T15:57:54.867Z,9.60
2019-04-05T16:00:44.395Z,9.25
2019-04-05T16:03:18.549Z,10.00
2019-04-05T16:05:52.607Z,8.80
2019-04-05T16:08:27.439Z,9.13
2019-04-05T16:11:01.775Z,8.15
2019-04-05T16:13:35.839Z,8.10
2019-04-05T16:16:10.243Z,7.55
2019-04-05T16:18:44.500Z,7.97
2019-04-05T16:21:18.700Z,7.53
2019-04-05T16:23:52.701Z,7.30
2019-04-05T16:26:27.112Z,7.40
2019-04-05T16:29:01.383Z,7.00
2019-04-05T16:31:35.542Z,7.35
2019-04-05T16:34:09.967Z,6.85
2019-04-05T16:36:46.772Z,6.35
2019-04-05T16:39:22.428Z,6.37
2019-04-05T16:41:58.631Z,6.92
2019-04-05T16:44:33.011Z,5.80
2019-04-05T16:47:07.067Z,6.40
2019-04-05T16:49:41.219Z,7.03
2019-04-05T16:52:15.111Z,6.17
2019-04-05T16:54:49.532Z,6.35
2019-04-05T16:57:24.819Z,6.78
2019-04-05T16:59:58.774Z,6.75
2019-04-05T17:02:32.997Z,6.40
2019-04-05T17:05:07.472Z,6.47
2019-04-05T17:07:41.542Z,5.87
2019-04-05T17:10:15.804Z,5.78
2019-04-05T17:12:50.141Z,6.37
2019-04-05T17:15:24.188Z,6.00
2019-04-05T17:17:59.950Z,6.00
2019-04-05T17:20:34.078Z,6.37
2019-04-05T17:23:08.209Z,5.97
2019-04-05T17:25:42.533Z,5.92
2019-04-05T17:28:16.641Z,6.60
2019-04-05T17:30:51.270Z,6.35
2019-04-05T17:33:25.733Z,6.10
2019-04-05T17:36:00.212Z,6.10
2019-04-05T17:38:34.256Z,5.50
2019-04-05T17:41:08.479Z,5.97
2019-04-05T17:43:42.688Z,5.72
2019-04-05T17:46:17.288Z,5.65
2019-04-05T17:48:52.012Z,5.70
2019-04-05T17:51:26.466Z,5.80
2019-04-05T17:54:00.435Z,6.47
2019-04-05T17:56:35.270Z,6.15
2019-04-05T17:59:09.649Z,6.55
2019-04-05T18:01:44.370Z,7.50
2019-04-05T18:04:18.635Z,6.92
2019-04-05T18:06:52.980Z,7.70
2019-04-05T18:09:27.473Z,7.47
2019-04-05T18:12:01.745Z,6.53
2019-04-05T18:14:36.037Z,7.10
2019-04-05T18:17:10.268Z,6.92
2019-04-05T18:19:44.308Z,6.55
2019-04-05T18:22:18.035Z,6.45
2019-04-05T18:24:51.719Z,7.25
2019-04-05T18:27:25.608Z,7.08
2019-04-05T18:29:59.836Z,8.03
2019-04-05T18:32:34.161Z,7.95
2019-04-05T18:35:08.862Z,6.72
2019-04-05T18:37:43.002Z,6.95
2019-04-05T18:40:17.384Z,6.42
2019-04-05T18:42:51.638Z,6.20
2019-04-05T18:45:25.664Z,6.65
2019-04-05T18:47:59.865Z,6.10
2019-04-05T18:50:33.876Z,6.67
2019-04-05T18:53:08.096Z,5.62
2019-04-05T18:55:42.353Z,6.45
2019-04-05T18:58:16.940Z,7.03
2019-04-05T19:00:51.147Z,5.80
2019-04-05T19:03:25.675Z,5.80
2019-04-05T19:05:59.601Z,5.53
2019-04-05T19:08:39.858Z,5.22
2019-04-05T19:11:09.797Z,5.45
2019-04-05T19:13:43.897Z,6.00
2019-04-05T19:16:18.142Z,5.70
2019-04-05T19:18:52.308Z,5.33
2019-04-05T19:21:27.713Z,5.85
2019-04-05T19:24:01.811Z,5.53
2019-04-05T19:26:36.121Z,5.10
2019-04-05T19:29:10.004Z,5.35
2019-04-05T19:49:57.218Z,6.05
2019-04-05T19:52:31.345Z,5.83
2019-04-05T19:55:05.608Z,5.53
2019-04-05T19:57:39.730Z,5.22
2019-04-05T20:00:14.237Z,5.37
2019-04-05T20:02:48.638Z,5.65
2019-04-05T20:05:22.767Z,4.90
2019-04-05T20:07:56.952Z,5.10
2019-04-05T20:10:31.143Z,5.60
2019-04-05T20:13:05.284Z,4.83
2019-04-05T20:15:39.665Z,4.90
2019-04-05T20:18:13.832Z,5.12
2019-04-05T20:20:49.024Z,5.45
2019-04-05T20:23:23.055Z,5.12
2019-04-05T20:25:57.251Z,5.35
2019-04-05T20:28:31.348Z,4.62
2019-04-05T20:31:05.738Z,4.85
2019-04-05T20:33:39.941Z,4.67
2019-04-05T20:36:14.222Z,4.97
2019-04-05T20:38:48.044Z,5.08
2019-04-05T20:41:22.231Z,4.50
2019-04-05T20:43:56.332Z,4.50
2019-04-05T20:46:30.702Z,4.75
2019-04-05T20:49:04.757Z,4.80
2019-04-05T20:51:38.820Z,4.42
2019-04-05T20:54:12.808Z,4.80
2019-04-05T20:56:47.019Z,4.90
2019-04-05T20:59:21.190Z,5.12
2019-04-05T21:01:55.149Z,4.85
2019-04-05T21:04:29.210Z,4.78
2019-04-05T21:07:03.255Z,4.50
2019-04-05T21:09:37.579Z,5.15
2019-04-05T21:12:11.656Z,5.08
2019-04-05T21:14:45.556Z,4.80
2019-04-05T21:17:19.850Z,5.42
2019-04-05T21:19:53.955Z,5.08
2019-04-05T21:22:28.208Z,5.25
2019-04-05T21:25:02.156Z,5.53
2019-04-05T21:27:36.558Z,5.20
2019-04-05T21:30:11.368Z,4.80
2019-04-05T21:32:45.634Z,4.85
2019-04-05T21:35:19.892Z,5.50
2019-04-05T21:37:53.855Z,5.20
2019-04-05T21:40:28.001Z,5.58
2019-04-05T21:43:02.212Z,5.40
2019-04-05T21:45:36.421Z,5.62
2019-04-05T21:48:10.592Z,5.78
2019-04-05T21:50:44.873Z,5.58
2019-04-05T21:53:19.017Z,6.30
2019-04-05T21:55:53.192Z,5.97
2019-04-05T21:58:27.149Z,5.67
2019-04-05T22:01:06.402Z,5.78
2019-04-05T22:03:40.916Z,5.97
2019-04-05T22:06:15.363Z,5.85
2019-04-05T22:08:49.668Z,7.42
2019-04-05T22:11:23.919Z,5.85
2019-04-05T22:13:58.004Z,6.95
2019-04-05T22:16:32.005Z,6.55
2019-04-05T22:19:06.055Z,7.67
2019-04-05T22:21:41.553Z,6.87
2019-04-05T22:24:15.924Z,6.72
2019-04-05T22:26:50.063Z,6.95
2019-04-05T22:29:23.957Z,6.78
2019-04-05T22:31:57.974Z,6.33
2019-04-05T22:34:32.330Z,6.55
2019-04-05T22:37:07.255Z,6.47
2019-04-05T22:39:41.217Z,6.55
2019-04-05T22:42:15.318Z,6.80
2019-04-05T22:44:49.485Z,6.87
2019-04-05T22:47:23.596Z,6.50
2019-04-05T22:49:57.584Z,6.67
2019-04-05T22:52:31.653Z,6.35
2019-04-05T22:55:11.705Z,6.33
2019-04-05T22:57:42.080Z,6.12
2019-04-05T23:00:16.602Z,6.40
2019-04-05T23:02:51.983Z,7.17
2019-04-05T23:05:26.172Z,6.50
2019-04-05T23:08:00.404Z,6.62
2019-04-05T23:10:34.441Z,6.60
2019-04-05T23:13:08.490Z,6.55
2019-04-05T23:15:42.734Z,6.55
2019-04-05T23:18:16.885Z,6.80
2019-04-05T23:20:51.068Z,5.92
2019-04-05T23:23:25.071Z,6.70
2019-04-05T23:25:59.507Z,7.15
2019-04-05T23:28:33.767Z,7.10
2019-04-05T23:31:08.004Z,7.17
2019-04-05T23:33:42.317Z,7.35
2019-04-05T23:36:16.374Z,6.83
2019-04-05T23:38:50.476Z,7.10
2019-04-05T23:41:24.354Z,7.70
2019-04-05T23:43:58.644Z,7.08
2019-04-05T23:46:32.929Z,7.20
2019-04-05T23:49:06.931Z,7.40
2019-04-05T23:51:41.203Z,7.67
2019-04-05T23:54:15.315Z,8.05
2019-04-05T23:56:49.387Z,7.37
2019-04-05T23:59:23.378Z,7.62
